Tiempo atmosférico en la estación meteorológica de La Almunia De Doña Godina, Zaragoza (370 m.)



Fecha
DESCASC
Temp. máxima en grados centígrados (hora)
DESCASC
Temp. mínima en grados centígrados (hora)
DESCASC
Temp. media en grados centígrados
DESCASC
Racha de viento máxima en m/sg (hora)
DESCASC
Velocidad máxima media en intervalos de 10 minutos(hora)
DESCASC
Precipitaciones diarias en mm
DESCASC
Precipitaciones de 00:00 a 06:00 en mm
DESCASC
Precipitaciones de 06:00 a 12:00 en mm
DESCASC
Precipitaciones de 12:00 a 18:00 en mm
DESCASC
Precipitaciones de 18:00 a 24:00 en mm
DESCASC
10-07-2020 30.8 (18:10) 15.8 (06:50) 23.3 9.72 (19:50) 5.83 (19:30) 0 0 0 0 0
09-07-2020 33.6 (18:50) 19.4 (23:59) 26.5 15.83 (22:10) 6.39 (22:20) 4 0 0 0 4
08-07-2020 33.3 (17:10) 14.3 (06:50) 23.8 12.78 (18:40) 6.67 (18:40) 0 0 0 0 0
07-07-2020 32 (16:50) 11.1 (06:50) 21.6 7.22 (17:30) 3.61 (19:40) 0 0 0 0 0
06-07-2020 29.2 (16:20) 18.2 (00:00) 23.7 14.17 (17:00) 8.33 (16:00) 0 0 0 0 0
05-07-2020 34.1 (17:00) 14.3 (06:00) 24.2 7.5 (21:40) 3.89 (15:10) 0 0 0 0 0
04-07-2020 31.3 (16:00) 10.1 (06:30) 20.7 9.17 (18:20) 5.28 (17:20) 0 0 0 0 0
03-07-2020 26.2 (18:00) 16.7 (23:59) 21.5 10.28 (18:50) 5.83 (15:00) 0 0 0 0 0
02-07-2020 28.4 (16:10) 17.2 (00:00) 22.8 11.67 (18:40) 7.5 (18:50) 0 0 0 0 0
01-07-2020 33.8 (16:40) 19.3 (00:00) 26.5 10 (19:10) 5.28 (19:10) 0 0 0 0 0
30-06-2020 34 (18:20) 15.5 (00:00) 24.8 7.78 (22:00) 4.17 (22:00) 3.4 0 0 0 3.4
29-06-2020 -- (--) -- (--) -- 8.06 (10:00) 4.17 (19:40) -- 0 -- -- 0
28-06-2020 -- (--) -- (--) -- 6.11 (22:30) 2.78 (12:30) -- 0 -- -- 0
27-06-2020 -- (--) -- (--) -- 6.94 (13:10) 3.61 (13:10) -- 0 -- -- 0
26-06-2020 32.2 (15:10) 16 (00:00) 24.1 8.89 (16:30) 4.72 (16:40) 4.2 3.6 0 0 0.6
25-06-2020 -- (--) -- (--) -- 17.5 (18:40) 9.17 (18:40) -- 0 -- 3.2 --
24-06-2020 31.5 (14:50) 18.2 (00:00) 24.9 8.61 (16:10) 5.28 (21:30) 1.8 0 1.8 0 0
23-06-2020 35.1 (18:30) 13.6 (00:00) 24.3 5.56 (16:10) 2.78 (19:40) 0 0 0 0 0
22-06-2020 31.2 (17:50) 16 (00:00) 23.6 8.61 (02:40) 3.61 (13:30) 0 0 0 0 0
21-06-2020 31.1 (17:10) 13.9 (00:00) 22.5 10.28 (18:30) 5.56 (18:30) 0 0 0 0 0
20-06-2020 30.5 (17:10) 15.6 (00:00) 23.1 6.11 (18:10) 3.89 (18:20) 0 0 0 0 0
19-06-2020 29 (16:40) 13.1 (00:00) 21.1 5.56 (19:30) 3.33 (17:30) 0 0 0 0 0
18-06-2020 24.3 (17:40) 12 (07:00) 18.1 6.11 (05:10) 3.33 (05:00) 9.4 9.4 0 0 0
17-06-2020 23.2 (18:40) 13.5 (00:00) 18.4 6.94 (12:50) 3.89 (12:10) 0 0 0 0 0
16-06-2020 26 (16:40) 13.9 (00:00) 19.9 13.33 (18:40) 7.5 (18:40) 3.6 1.4 2.2 0 0
15-06-2020 26.1 (17:20) 12 (00:00) 19.1 6.67 (13:30) 4.17 (16:20) 0.2 0 0 0 0.2
14-06-2020 27.1 (16:30) 12.1 (00:00) 19.6 6.94 (21:00) 3.33 (21:00) 0 0 0 0 0
13-06-2020 24.5 (18:00) 10.9 (00:00) 17.7 10.56 (10:50) 5.28 (10:50) 0 0 0 0 0
12-06-2020 23.3 (18:10) 10.7 (00:00) 17 11.11 (18:10) 6.11 (17:10) 3.4 0.6 0 0 2.8

Gráficas

Temp. máximas Temp. mínimas Temp. medias Precipitaciones Rachas de viento máximas Velocidades máximas media en intervalos de 10 minutos

Datos horarios

Fecha y hora oficial Temperatura (ºC) Velocidad del viento (km/h) Dirección del viento Racha (km/h) Dirección de racha Precipitación (mm) Presión (hPa) Tendencia (hPa) Humedad (%)
2020-07-11 23:00:00 22.1 4 Sur 6 Sudoeste 0 -- -- 75
2020-07-11 22:00:00 24.9 4 Sudoeste 6 Sudoeste 0 -- -- 66
2020-07-11 21:00:00 28.1 3 Norte 9 Noroeste 0 -- -- 47
2020-07-11 20:00:00 30.1 7 Norte 12 Este 0 -- -- 41
2020-07-11 19:00:00 31.2 7 Nordeste 18 Este 0 -- -- 40
2020-07-11 18:00:00 31.4 6 Nordeste 17 Nordeste 0 -- -- 41
2020-07-11 17:00:00 30.7 9 Este 18 Norte 0 -- -- 41
2020-07-11 16:00:00 29.2 7 Nordeste 21 Este 0 -- -- 44
2020-07-11 15:00:00 28.3 6 Nordeste 19 Este 0 -- -- 43
2020-07-11 14:00:00 27.1 8 Nordeste 22 Este 0 -- -- 48
2020-07-11 13:00:00 26 9 Nordeste 27 Nordeste 0 -- -- 48
2020-07-11 12:00:00 24.3 10 Nordeste 22 Nordeste 0 -- -- 54
2020-07-11 11:00:00 22.8 3 Sur 15 Nordeste 0 -- -- 57
2020-07-11 10:00:00 21.8 2 Nordeste 12 Este 0 -- -- 63
2020-07-11 09:00:00 19 3 Nordeste 6 Este 0 -- -- 75
2020-07-11 08:00:00 16.5 4 Sur 7 Sudoeste 0 -- -- 85
2020-07-11 07:00:00 14.8 5 Sudoeste 7 Sudoeste 0 -- -- 91
2020-07-11 06:00:00 15 2 Sudoeste 7 Sudoeste 0 -- -- 88
2020-07-11 05:00:00 15.6 5 Sudoeste 8 Sudoeste 0 -- -- 88
2020-07-11 04:00:00 16 4 Sudoeste 6 Sudoeste 0 -- -- 87
2020-07-11 03:00:00 16.7 0 Calma 5 Norte 0 -- -- 85
2020-07-11 02:00:00 17.7 0 Calma 8 Norte 0 -- -- 81
2020-07-11 01:00:00 18.7 5 Norte 14 Nordeste 0 -- -- 77
2020-07-11 00:00:00 20 8 Nordeste 22 Nordeste 0 -- -- 70
2020-07-10 23:00:00 20.9 13 Nordeste 24 Nordeste 0 -- -- 66
2020-07-10 22:00:00 22.5 12 Nordeste 21 Norte 0 -- -- 63
2020-07-10 21:00:00 25.1 17 Norte 34 Norte 0 -- -- 57
2020-07-10 20:00:00 27.6 18 Norte 35 Norte 0 -- -- 52
2020-07-10 19:00:00 29.9 16 Norte 30 Nordeste 0 -- -- 47
2020-07-10 18:00:00 30.7 11 Norte 27 Norte 0 -- -- 45
2020-07-10 17:00:00 30.3 13 Norte 26 Norte 0 -- -- 44
2020-07-10 16:00:00 29.9 12 Norte 25 Nordeste 0 -- -- 45
2020-07-10 15:00:00 29.3 13 Nordeste 26 Norte 0 -- -- 48
2020-07-10 14:00:00 28.2 14 Nordeste 22 Nordeste 0 -- -- 50
2020-07-10 13:00:00 27.1 10 Nordeste 21 Nordeste 0 -- -- 56
2020-07-10 12:00:00 25.8 8 Nordeste 15 Nordeste 0 -- -- 61
2020-07-10 11:00:00 24.5 3 Sudeste 9 Nordeste 0 -- -- 64
2020-07-10 10:00:00 22.6 0 Calma 12 Este 0 -- -- 72
2020-07-10 09:00:00 20.6 4 Sudeste 9 Este 0 -- -- 85
2020-07-10 08:00:00 17.2 2 Noroeste 6 Sudoeste 0 -- -- 93
2020-07-10 07:00:00 15.8 3 Sudoeste 8 Sudoeste 0 -- -- 92
2020-07-10 06:00:00 16 2 Sudoeste 8 Sudoeste 0 -- -- 93
2020-07-10 05:00:00 16.4 0 Calma 6 Sudoeste 0 -- -- 92
2020-07-10 04:00:00 17.2 4 Sudoeste 10 Sudoeste 0 -- -- 91
2020-07-10 03:00:00 17.9 5 Oeste 11 Oeste 0 -- -- 88
2020-07-10 02:00:00 18.5 4 Noroeste 14 Oeste 0 -- -- 85
2020-07-10 01:00:00 19.1 5 Oeste 18 Sudeste 0 -- -- 82
2020-07-10 00:00:00 19.4 6 Oeste 46 Sudoeste 4 -- -- 78
2020-07-09 23:00:00 23.8 13 Sudoeste 57 Sudoeste 0 -- -- 53
2020-07-09 22:00:00 26.3 21 Sudoeste 44 Oeste 0 -- -- 43
2020-07-09 21:00:00 28.6 9 Oeste 34 Oeste 0 -- -- 34
2020-07-09 20:00:00 31.2 3 Sudoeste 16 Oeste 0 -- -- 36
2020-07-09 19:00:00 33.3 0 Calma 22 Oeste -- -- -- 31
2020-07-09 18:00:00 30.4 4 Oeste 11 Sudoeste 0 -- -- 36
2020-07-09 17:00:00 29.7 7 Sudoeste 22 Noroeste 0 -- -- 36
2020-07-09 16:00:00 29.6 8 Oeste 21 Oeste 0 -- -- 34
2020-07-09 15:00:00 29.9 8 Este 19 Este 0 -- -- 52
2020-07-09 14:00:00 30.7 7 Nordeste 15 Nordeste 0 -- -- 48
2020-07-09 13:00:00 29.6 7 Este 19 Nordeste -- -- -- 49
2020-07-09 12:00:00 29.1 8 Nordeste -- -- -- -- -- 49
2020-07-09 11:00:00 29.1 9 Este 19 Este -- -- -- 50
2020-07-09 10:00:00 25.6 3 Sudeste 8 Sudeste 0 -- -- 59
2020-07-09 09:00:00 23 4 Norte 9 Noroeste 0 -- -- 71
2020-07-09 08:00:00 22.3 5 Este 16 Este 0 -- -- 67
2020-07-09 07:00:00 22 8 Este 14 Nordeste 0 -- -- 62
2020-07-09 06:00:00 23 9 Oeste 28 Nordeste 0 -- -- 55
2020-07-09 05:00:00 22 3 Oeste 18 Sudoeste 0 -- -- 59
2020-07-09 04:00:00 23.2 6 Noroeste 14 Sudoeste 0 -- -- 55
2020-07-09 03:00:00 24 6 Noroeste 14 Norte 0 -- -- 52
2020-07-09 02:00:00 25.9 8 Norte 27 Nordeste 0 -- -- 47
2020-07-09 01:00:00 27.2 15 Nordeste 25 Nordeste 0 -- -- 41
2020-07-09 00:00:00 29.3 12 Norte 31 Sudoeste 0 -- -- 33
2020-07-08 23:00:00 29.6 6 Norte 28 Sudeste 0 -- -- 33
2020-07-08 22:00:00 30.5 16 Sur 28 Sur 0 -- -- 31
2020-07-08 21:00:00 29.9 18 Sur 35 Norte 0 -- -- 31
2020-07-08 20:00:00 28.1 11 Noroeste 43 Oeste 0 -- -- 38
2020-07-08 19:00:00 26.7 15 Oeste 46 Oeste 0 -- -- 48
2020-07-08 18:00:00 30.7 3 Oeste 9 Sudeste 0 -- -- 42
2020-07-08 17:00:00 32.6 4 Norte 16 Norte 0 -- -- 34
2020-07-08 16:00:00 31 6 Norte 17 Norte 0 -- -- 38
2020-07-08 15:00:00 29.3 10 Norte 24 Norte 0 -- -- 41
2020-07-08 14:00:00 28 14 Norte 23 Norte 0 -- -- 44
2020-07-08 13:00:00 25.5 8 Norte 27 Este 0 -- -- 52
2020-07-08 12:00:00 25 8 Este 17 Sudoeste 0 -- -- 52
2020-07-08 11:00:00 23.1 6 Oeste 17 Oeste 0 -- -- 56
2020-07-08 10:00:00 23.2 6 Este 13 Nordeste 0 -- -- 58
2020-07-08 09:00:00 19.7 4 Norte 8 Norte 0 -- -- 65
2020-07-08 08:00:00 16.7 0 Calma 4 Norte 0 -- -- 82
2020-07-08 07:00:00 14.4 2 Sudoeste 5 Sudoeste 0 -- -- 86
2020-07-08 06:00:00 14.9 4 Sudoeste 6 Oeste 0 -- -- 82
2020-07-08 05:00:00 15.8 3 Sudoeste 6 Sudoeste 0 -- -- 77
2020-07-08 04:00:00 16.8 5 Sudoeste 9 Este 0 -- -- 72
2020-07-08 03:00:00 17.6 5 Este 12 Este 0 -- -- 67
2020-07-08 02:00:00 17.8 4 Sudoeste 9 Sudoeste 0 -- -- 67
2020-07-08 01:00:00 19 3 Sudoeste 9 Sudoeste 0 -- -- 59
2020-07-08 00:00:00 19.7 6 Sudoeste 10 Sudoeste 0 -- -- 58
2020-07-07 23:00:00 21.2 3 Sudoeste 8 Sudoeste 0 -- -- 51
2020-07-07 22:00:00 23.8 7 Sudoeste 9 Sudoeste 0 -- -- 48
2020-07-07 21:00:00 27.7 4 Nordeste 18 Nordeste 0 -- -- 34
2020-07-07 20:00:00 30.6 9 Nordeste 22 Nordeste 0 -- -- 27
2020-07-07 19:00:00 31.3 10 Nordeste 21 Nordeste 0 -- -- 30
2020-07-07 18:00:00 32 10 Nordeste 26 Nordeste 0 -- -- 25
2020-07-07 17:00:00 31.7 10 Nordeste 25 Nordeste 0 -- -- 26
2020-07-07 16:00:00 30.9 9 Este 21 Nordeste 0 -- -- 31
2020-07-07 15:00:00 29 7 Este 19 Este 0 -- -- 34
2020-07-07 14:00:00 27 5 Nordeste 16 Nordeste 0 -- -- 38
2020-07-07 13:00:00 25.8 4 Nordeste 12 Nordeste 0 -- -- 39
2020-07-07 12:00:00 24.1 5 Sudeste 14 Este 0 -- -- 40
2020-07-07 11:00:00 22.1 2 Sudeste 11 Nordeste 0 -- -- 44
2020-07-07 10:00:00 19.6 4 Nordeste 13 Norte 0 -- -- 54
2020-07-07 09:00:00 17.2 6 Este 15 Sudeste 0 -- -- 62
2020-07-07 08:00:00 14 8 Sudeste 16 Sudeste 0 -- -- 74
2020-07-07 07:00:00 11.2 4 Sur 9 Sudoeste 0 -- -- 86
2020-07-07 06:00:00 11.4 5 Sudoeste 8 Sudoeste 0 -- -- 83
2020-07-07 05:00:00 12.5 4 Sudoeste 10 Sudeste 0 -- -- 77
2020-07-07 04:00:00 14.6 5 Sur 12 Este 0 -- -- 71
2020-07-07 03:00:00 16.3 7 Sudeste 13 Sur 0 -- -- 62
2020-07-07 02:00:00 17.6 4 Sudoeste 22 Sudeste 0 -- -- 63
2020-07-07 01:00:00 17.5 8 Sudoeste 16 Sudeste 0 -- -- 68
2020-07-07 00:00:00 19 8 Sur 15 Sur 0 -- -- 63
2020-07-06 23:00:00 21.7 8 Norte 22 Norte 0 -- -- 44
2020-07-06 22:00:00 22.3 12 Norte 24 Nordeste 0 -- -- 52
2020-07-06 21:00:00 23.8 12 Norte 30 Norte 0 -- -- 52
2020-07-06 20:00:00 25.9 14 Norte 48 Norte 0 -- -- 47
2020-07-06 19:00:00 26.8 24 Norte 51 Norte 0 -- -- 46
2020-07-06 18:00:00 28.3 26 Norte 50 Norte 0 -- -- 44
2020-07-06 17:00:00 28.6 28 Norte 51 Norte 0 -- -- 40
2020-07-06 16:00:00 28.6 30 Norte 46 Norte 0 -- -- 42
2020-07-06 15:00:00 28.4 28 Norte 43 Norte 0 -- -- 45
2020-07-06 14:00:00 28 24 Norte 44 Norte 0 -- -- 47
2020-07-06 13:00:00 27.2 21 Norte 40 Norte 0 -- -- 51
2020-07-06 12:00:00 26.8 18 Nordeste 38 Nordeste 0 -- -- 51
2020-07-06 11:00:00 25.6 16 Norte 34 Nordeste 0 -- -- 54
2020-07-06 10:00:00 24.5 20 Norte 39 Norte 0 -- -- 55
2020-07-06 09:00:00 22.4 0 Calma 13 Sudeste 0 -- -- 58
2020-07-06 08:00:00 19.6 8 Sudeste 14 Sudeste 0 -- -- 65
2020-07-06 07:00:00 18.4 7 Este 12 Este 0 -- -- 72
2020-07-06 06:00:00 18.6 5 Sudeste 9 Sudeste 0 -- -- 71
2020-07-06 05:00:00 19.1 3 Sur 17 Sur 0 -- -- 70
2020-07-06 04:00:00 19.1 7 Sudoeste 12 Sudoeste 0 -- -- 73
2020-07-06 03:00:00 20.3 4 Sudeste 11 Sur 0 -- -- 65
2020-07-06 02:00:00 21.5 8 Sur 13 Sur 0 -- -- 61
2020-07-06 01:00:00 23.5 5 Noroeste 22 Norte 0 -- -- 56
2020-07-06 00:00:00 24.7 9 Norte 22 Norte 0 -- -- 50
2020-07-05 23:00:00 25.9 5 Noroeste 20 Noroeste 0 -- -- 48
2020-07-05 22:00:00 27.7 9 Norte 27 Norte 0 -- -- 45
2020-07-05 21:00:00 30.5 5 Norte 21 Norte 0 -- -- 39
2020-07-05 20:00:00 32.7 10 Norte 21 Norte 0 -- -- 33
2020-07-05 19:00:00 33.4 13 Norte 24 Norte 0 -- -- 32
2020-07-05 18:00:00 34 6 Norte 26 Nordeste 0 -- -- 30
2020-07-05 17:00:00 34.1 12 Nordeste 22 Nordeste 0 -- -- 31
2020-07-05 16:00:00 33.5 8 Norte 24 Este 0 -- -- 32
2020-07-05 15:00:00 32.4 10 Nordeste 23 Nordeste 0 -- -- 35
2020-07-05 14:00:00 31.7 8 Sudeste 15 Sudeste 0 -- -- 35
2020-07-05 13:00:00 30.1 6 Este 15 Nordeste 0 -- -- 40
2020-07-05 12:00:00 27.8 6 Nordeste 17 Nordeste -- -- -- 41
2020-07-05 11:00:00 26.4 5 Nordeste 15 Este -- -- -- 45
2020-07-05 10:00:00 25.4 6 Nordeste 13 Nordeste 0 -- -- 46
2020-07-05 09:00:00 21.4 2 Sur 6 Noroeste 0 -- -- 51
2020-07-05 08:00:00 17.4 2 Nordeste 15 Oeste 0 -- -- 66
2020-07-05 07:00:00 14.6 5 Sudoeste 10 Oeste 0 -- -- 73
2020-07-05 06:00:00 14.3 2 Sudeste 9 Sudoeste 0 -- -- 76
2020-07-05 05:00:00 14.8 4 Sur 10 Sudoeste 0 -- -- 76
2020-07-05 04:00:00 15.2 3 Sur 9 Sudoeste 0 -- -- 74
2020-07-05 03:00:00 16.2 4 Sur 10 Sudoeste 0 -- -- 72
2020-07-05 02:00:00 17 4 Sudoeste 9 Sur 0 -- -- 69
2020-07-05 01:00:00 18.8 6 Sudoeste 12 Sudoeste 0 -- -- 58
2020-07-05 00:00:00 21.7 5 Sudoeste 18 Norte 0 -- -- 51
2020-07-04 23:00:00 23.4 8 Norte 18 Oeste 0 -- -- 44
2020-07-04 22:00:00 23.8 3 Este 13 Nordeste 0 -- -- 39
2020-07-04 21:00:00 27.3 4 Nordeste 26 Norte 0 -- -- 34
2020-07-04 20:00:00 29.7 14 Norte 28 Norte 0 -- -- 26
2020-07-04 19:00:00 30.4 17 Norte 33 Norte 0 -- -- 23
2020-07-04 18:00:00 30.6 17 Norte 33 Nordeste 0 -- -- 24
2020-07-04 17:00:00 30.7 17 Nordeste 30 Nordeste 0 -- -- 23
2020-07-04 16:00:00 31.3 11 Nordeste 24 Norte 0 -- -- 26
2020-07-04 15:00:00 29.9 11 Sur 23 Este 0 -- -- 26
2020-07-04 14:00:00 27.5 4 Nordeste 19 Nordeste 0 -- -- 31
2020-07-04 13:00:00 25.9 2 Nordeste 14 Nordeste 0 -- -- 39
2020-07-04 12:00:00 24.4 5 Nordeste 13 Este 0 -- -- 44
2020-07-04 11:00:00 21.9 4 Nordeste 9 Este 0 -- -- 54
2020-07-04 10:00:00 20 5 Oeste 13 Sudoeste 0 -- -- 56
2020-07-04 09:00:00 17.1 6 Sudoeste 13 Sudoeste 0 -- -- 65
2020-07-04 08:00:00 12.6 3 Sudoeste 8 Oeste 0 -- -- 83
2020-07-04 07:00:00 10.2 3 Sudoeste 9 Oeste 0 -- -- 90
2020-07-04 06:00:00 10.4 2 Sur 6 Sudoeste 0 -- -- 88
2020-07-04 05:00:00 11.5 2 Oeste 6 Sudoeste 0 -- -- 83
2020-07-04 04:00:00 13.1 4 Sudoeste 12 Sur 0 -- -- 76
2020-07-04 03:00:00 14.1 5 Sur 12 Sur 0 -- -- 72
2020-07-04 02:00:00 14.2 5 Sur 10 Sur 0 -- -- 73
2020-07-04 01:00:00 14.9 6 Sudoeste 9 Sudoeste 0 -- -- 71
2020-07-04 00:00:00 16.7 3 Nordeste 17 Nordeste 0 -- -- 62
2020-07-03 23:00:00 18.3 6 Nordeste 20 Norte 0 -- -- 59
2020-07-03 22:00:00 20.1 11 Norte 24 Norte 0 -- -- 52
2020-07-03 21:00:00 22.1 12 Norte 34 Norte 0 -- -- 48
2020-07-03 20:00:00 23.9 17 Norte 35 Nordeste 0 -- -- 45
2020-07-03 19:00:00 25 20 Norte 37 Nordeste 0 -- -- 42
2020-07-03 18:00:00 26.2 17 Norte 35 Norte 0 -- -- 38
2020-07-03 17:00:00 25.7 17 Norte 36 Norte 0 -- -- 38
2020-07-03 16:00:00 25.5 17 Norte 34 Norte 0 -- -- 40
2020-07-03 15:00:00 24.6 21 Norte 36 Nordeste 0 -- -- 43
2020-07-03 14:00:00 23.9 19 Norte 34 Norte 0 -- -- 45
2020-07-03 13:00:00 23.3 17 Nordeste 34 Nordeste 0 -- -- 49
2020-07-03 12:00:00 21.7 17 Norte 28 Nordeste 0 -- -- 51
2020-07-03 11:00:00 20.5 16 Norte 31 Norte 0 -- -- 52
2020-07-03 10:00:00 21.1 11 Norte 28 Norte 0 -- -- 54
2020-07-03 09:00:00 19.4 9 Norte 19 Norte 0 -- -- 57
2020-07-03 08:00:00 17.4 10 Norte 29 Norte 0 -- -- 62
2020-07-03 07:00:00 16.9 9 Noroeste 27 Oeste 0 -- -- 61
2020-07-03 06:00:00 17.3 8 Noroeste 22 Oeste 0 -- -- 61
2020-07-03 05:00:00 17.4 4 Oeste 26 Noroeste 0 -- -- 61
2020-07-03 04:00:00 17.3 3 Norte 20 Oeste 0 -- -- 67
2020-07-03 03:00:00 17.3 6 Noroeste 21 Oeste 0 -- -- 65
2020-07-03 02:00:00 17.5 5 Norte 24 Nordeste 0 -- -- 67
2020-07-03 01:00:00 17.7 5 Noroeste 25 Noroeste 0 -- -- 67
2020-07-03 00:00:00 18 8 Noroeste 24 Norte 0 -- -- 66
2020-07-02 23:00:00 18.2 10 Norte 27 Norte 0 -- -- 67
2020-07-02 22:00:00 19.2 9 Norte 34 Norte 0 -- -- 65
2020-07-02 21:00:00 20.9 16 Norte 35 Norte 0 -- -- 62
2020-07-02 20:00:00 23.2 20 Norte 37 Norte 0 -- -- 58
2020-07-02 19:00:00 24.7 23 Norte 42 Norte 0 -- -- 55
2020-07-02 18:00:00 26.6 21 Norte 36 Norte 0 -- -- 51
2020-07-02 17:00:00 28.2 20 Norte 32 Norte 0 -- -- 47
2020-07-02 16:00:00 28.2 13 Nordeste 26 Nordeste 0 -- -- 51
2020-07-02 15:00:00 27.4 4 Nordeste 23 Nordeste 0 -- -- 51
2020-07-02 14:00:00 25.8 12 Nordeste 26 Nordeste 0 -- -- 57
2020-07-02 13:00:00 26 6 Este 19 Noroeste 0 -- -- 58
2020-07-02 12:00:00 23.9 6 Nordeste 19 Nordeste 0 -- -- 62
2020-07-02 11:00:00 22.4 9 Norte 20 Nordeste 0 -- -- 67
2020-07-02 10:00:00 21.9 10 Nordeste 21 Nordeste 0 -- -- 67
2020-07-02 09:00:00 21.2 7 Nordeste 14 Este 0 -- -- 73
2020-07-02 08:00:00 19 7 Este 12 Este 0 -- -- 79
2020-07-02 07:00:00 17.4 5 Sudeste 10 Sudeste 0 -- -- 85
2020-07-02 06:00:00 18.3 3 Este 10 Sudeste 0 -- -- 80
2020-07-02 05:00:00 19.1 6 Sudeste 14 Sudeste 0 -- -- 77
2020-07-02 04:00:00 19.5 6 Sudeste 14 Sudeste 0 -- -- 76
2020-07-02 03:00:00 19.8 8 Sudeste 14 Sur 0 -- -- 74
2020-07-02 02:00:00 20 2 Sudeste 6 Sudeste 0 -- -- 75
2020-07-02 01:00:00 20.7 4 Nordeste 14 Norte 0 -- -- 73
2020-07-02 00:00:00 21.6 4 Norte 11 Nordeste 0 -- -- 73
2020-07-01 23:00:00 23.1 4 Norte 21 Nordeste 0 -- -- 67
2020-07-01 22:00:00 24.7 13 Nordeste 22 Norte 0 -- -- 62
2020-07-01 21:00:00 26.1 13 Nordeste 28 Norte 0 -- -- 60
2020-07-01 20:00:00 28.8 9 Norte 36 Norte 0 -- -- 53
2020-07-01 19:00:00 31.5 15 Norte 31 Norte 0 -- -- 41
2020-07-01 18:00:00 32.1 17 Norte 33 Norte 0 -- -- 48
2020-07-01 17:00:00 33.5 17 Nordeste 32 Nordeste 0 -- -- 44
2020-07-01 16:00:00 33.4 11 Nordeste 28 Norte 0 -- -- 45
2020-07-01 15:00:00 32.5 12 Nordeste 22 Nordeste 0 -- -- 47
2020-07-01 14:00:00 31.7 10 Nordeste 20 Nordeste 0 -- -- 54
2020-07-01 13:00:00 29.9 5 Nordeste 13 Nordeste 0 -- -- 60
2020-07-01 12:00:00 27.9 7 Nordeste 12 Nordeste 0 -- -- 66
2020-07-01 11:00:00 26.2 5 Norte 11 Nordeste 0 -- -- 72
2020-07-01 10:00:00 24.7 2 Norte 9 Nordeste 0 -- -- 77
2020-07-01 09:00:00 22.4 4 Norte 8 Norte 0 -- -- 84
2020-07-01 08:00:00 20.4 3 Norte 5 Norte 0 -- -- 96
2020-07-01 07:00:00 19.3 0 Calma 6 Sudoeste 0 -- -- 95
2020-07-01 06:00:00 19.5 3 Noroeste 6 Noroeste 0 -- -- 95
2020-07-01 05:00:00 19.6 0 Calma 6 Norte 0 -- -- 94
2020-07-01 04:00:00 20 3 Oeste 6 Oeste 0 -- -- 94
2020-07-01 03:00:00 20.2 0 Calma 6 Noroeste 0 -- -- 91
2020-07-01 02:00:00 20.9 3 Noroeste 6 Oeste 0 -- -- 91
2020-07-01 01:00:00 21.7 3 Sudoeste 5 Sudoeste 0 -- -- 92
2020-07-01 00:00:00 21.9 3 Sudoeste 10 Sudoeste 0 -- -- 91
2020-06-30 23:00:00 22.1 2 Oeste 12 Nordeste 0.2 -- -- 88
2020-06-30 22:00:00 24.3 15 Nordeste 28 Nordeste 3.2 -- -- 74
2020-06-30 21:00:00 29.9 2 Norte 17 Nordeste 0 -- -- 52
2020-06-30 20:00:00 31.2 9 Este 18 Nordeste 0 -- -- 44
2020-06-30 19:00:00 33.1 8 Nordeste 20 Este 0 -- -- 39
2020-06-30 18:00:00 33.7 10 Este 21 Este 0 -- -- 39
2020-06-30 17:00:00 32.5 6 Nordeste 18 Nordeste 0 -- -- 42
2020-06-30 16:00:00 31.2 5 Norte 26 Noroeste 0 -- -- 41
2020-06-30 15:00:00 30.1 8 Nordeste 18 Este 0 -- -- 44
2020-06-30 14:00:00 28.3 6 Nordeste 18 Nordeste 0 -- -- 47
2020-06-30 13:00:00 27.5 8 Sudeste 19 Este 0 -- -- 42
2020-06-30 12:00:00 25.3 6 Nordeste 18 Nordeste 0 -- -- 50
2020-06-30 11:00:00 24.1 4 Oeste 12 Nordeste -- -- -- 57
2020-06-30 10:00:00 -- 9 Nordeste 15 Nordeste 0 -- -- --
2020-06-30 09:00:00 19.4 2 Nordeste 6 Nordeste 0 -- -- 73
2020-06-30 08:00:00 16.7 3 Sudoeste 6 Sudoeste 0 -- -- 81
2020-06-30 07:00:00 15.5 3 Oeste 10 Este 0 -- -- 85
2020-06-30 06:00:00 16.2 4 Este 10 Sudeste 0 -- -- 81
2020-06-30 05:00:00 17.3 6 Sudeste 11 Este 0 -- -- 77
2020-06-30 04:00:00 17.5 5 Sudeste 10 Este 0 -- -- 78
2020-06-30 03:00:00 18.3 6 Este 14 Sudeste 0 -- -- 77
2020-06-30 02:00:00 19.6 7 Sudeste 16 Sudeste 0 -- -- 73
2020-06-30 01:00:00 20.6 9 Este 19 Sudeste 0 -- -- 70
2020-06-30 00:00:00 21.3 7 Sudeste 12 Sur 0 -- -- 69
2020-06-29 23:00:00 22.4 6 Nordeste 17 Norte 0 -- -- 67
2020-06-29 22:00:00 24.2 9 Nordeste 24 Norte 0 -- -- 60
2020-06-29 21:00:00 26.3 13 Norte 27 Norte 0 -- -- 55
2020-06-29 20:00:00 28.4 14 Norte 27 Norte 0 -- -- 51
2020-06-29 19:00:00 29.9 13 Norte 27 Norte 0 -- -- 47
2020-06-29 18:00:00 30.2 13 Nordeste 24 Norte 0 -- -- 48
2020-06-29 17:00:00 30.2 14 Nordeste 26 Nordeste 0 -- -- 49
2020-06-29 16:00:00 29.8 12 Nordeste 23 Nordeste 0 -- -- 50
2020-06-29 15:00:00 29.6 12 Nordeste 25 Nordeste 0 -- -- 51
2020-06-29 14:00:00 29 10 Nordeste 25 Nordeste -- -- -- 52
2020-06-29 13:00:00 27.8 8 Norte 21 Nordeste -- -- -- 54
2020-06-29 12:00:00 26.9 11 Nordeste -- -- -- -- -- 55
2020-06-29 11:00:00 26 6 Norte -- -- -- -- -- 58
2020-06-29 10:00:00 25.3 9 Este 29 Este 0 -- -- 58
2020-06-29 09:00:00 22.2 5 Este 9 Este 0 -- -- 70
2020-06-29 08:00:00 19.2 2 Sudeste 7 Sudeste 0 -- -- 80
2020-06-29 07:00:00 18.4 5 Sur 12 Este 0 -- -- 81
2020-06-29 06:00:00 18.6 5 Sur 12 Sudeste 0 -- -- 80
2020-06-29 05:00:00 19.2 7 Sudeste 12 Sudeste 0 -- -- 78
2020-06-29 04:00:00 19.5 2 Oeste 18 Norte 0 -- -- 77
2020-06-29 03:00:00 20 2 Norte 13 Norte 0 -- -- 74
2020-06-29 02:00:00 21 3 Nordeste 11 Este 0 -- -- 71
2020-06-29 01:00:00 22.6 5 Nordeste 19 Norte 0 -- -- 64
2020-06-29 00:00:00 24.6 6 Norte 16 Norte 0 -- -- 57
2020-06-28 23:00:00 25.5 4 Oeste 22 Norte 0 -- -- 56
2020-06-28 22:00:00 26.4 7 Norte 13 Norte 0 -- -- 57
2020-06-28 21:00:00 29.3 6 Norte 17 Nordeste 0 -- -- 50
2020-06-28 20:00:00 32.3 6 Nordeste 13 Nordeste 0 -- -- 43
2020-06-28 19:00:00 33.6 5 Este 13 Nordeste 0 -- -- 38
2020-06-28 18:00:00 33.4 8 Este 17 Nordeste 0 -- -- 41
2020-06-28 17:00:00 32.9 6 Este 17 Norte 0 -- -- 43
2020-06-28 16:00:00 32 9 Norte 17 Este 0 -- -- 44
2020-06-28 15:00:00 30.9 8 Nordeste 17 Este 0 -- -- 46
2020-06-28 14:00:00 29.6 9 Nordeste 22 Este -- -- -- 50
2020-06-28 13:00:00 29 9 Nordeste 19 Nordeste -- -- -- 53
2020-06-28 12:00:00 27.9 9 Este -- -- -- -- -- 56
2020-06-28 11:00:00 26.1 6 Oeste 14 Este -- -- -- 62
2020-06-28 10:00:00 24.5 5 Este 11 Este 0 -- -- 66
2020-06-28 09:00:00 22 4 Sudeste 10 Sudeste 0 -- -- 73
2020-06-28 08:00:00 19.5 6 Sudeste 10 Sudeste 0 -- -- 85
2020-06-28 07:00:00 17.3 0 Calma 10 Sudoeste 0 -- -- 91
2020-06-28 06:00:00 17.9 5 Sudoeste 6 Sudoeste 0 -- -- 89
2020-06-28 05:00:00 18.8 4 Oeste 8 Oeste 0 -- -- 83
2020-06-28 04:00:00 19.1 5 Sudoeste 7 Sudoeste 0 -- -- 84
2020-06-28 03:00:00 19.6 3 Sudoeste 9 Sudoeste 0 -- -- 79
2020-06-28 02:00:00 19.6 3 Sudoeste 6 Sudoeste 0 -- -- 83
2020-06-28 01:00:00 19.9 4 Sudoeste 6 Sur 0 -- -- 82
2020-06-28 00:00:00 20.7 4 Sudoeste 5 Sur 0 -- -- 82
2020-06-27 23:00:00 22.2 4 Sudoeste 11 Sudoeste 0 -- -- 80
2020-06-27 22:00:00 24.9 4 Sudoeste 5 Norte 0 -- -- 68
2020-06-27 21:00:00 26.8 4 Nordeste 12 Nordeste 0 -- -- 53
2020-06-27 20:00:00 29.2 5 Norte 17 Nordeste 0 -- -- 45
2020-06-27 19:00:00 30.8 8 Norte 18 Norte 0 -- -- 41
2020-06-27 18:00:00 31.6 9 Nordeste 20 Nordeste 0 -- -- 43
2020-06-27 17:00:00 31.2 8 Nordeste 20 Nordeste 0 -- -- 40
2020-06-27 16:00:00 31.2 6 Este 22 Noroeste 0 -- -- 41
2020-06-27 15:00:00 30.1 11 Nordeste 22 Nordeste -- -- -- 47
2020-06-27 14:00:00 30.2 9 Este -- -- -- -- -- 45
2020-06-27 13:00:00 29 8 Este 22 Este -- -- -- 47
2020-06-27 12:00:00 27.5 5 Sudoeste -- -- -- -- -- 46
2020-06-27 11:00:00 25.5 6 Nordeste 16 Este -- -- -- 57
2020-06-27 10:00:00 23.4 4 Sudeste 14 Sudeste 0 -- -- 64
2020-06-27 09:00:00 20.5 4 Nordeste 10 Nordeste 0 -- -- 76
2020-06-27 08:00:00 16.7 0 Calma 5 Sudoeste 0 -- -- 96
2020-06-27 07:00:00 15 6 Sudoeste 9 Sudoeste 0 -- -- 95
2020-06-27 06:00:00 15.4 2 Oeste 5 Norte 0 -- -- 94
2020-06-27 05:00:00 16.2 2 Oeste 5 Nordeste 0 -- -- 93
2020-06-27 04:00:00 16.4 0 Calma 7 Sudoeste 0 -- -- 92
2020-06-27 03:00:00 16.9 5 Sudoeste 7 Sudoeste 0 -- -- 92
2020-06-27 02:00:00 17.3 3 Sudoeste 8 Noroeste 0 -- -- 90
2020-06-27 01:00:00 18.2 3 Norte 12 Oeste 0 -- -- 88
2020-06-27 00:00:00 19.7 6 Oeste 15 Oeste 0 -- -- 79
2020-06-26 23:00:00 19.9 3 Sudoeste 6 Noroeste 0 -- -- 82
2020-06-26 22:00:00 21.8 4 Este 13 Sur 0 -- -- 75
2020-06-26 21:00:00 24 4 Este 13 Sudeste 0 -- -- 76
2020-06-26 20:00:00 24.3 8 Sudoeste 14 Sudeste 0.6 -- -- 72
2020-06-26 19:00:00 27.3 5 Este 18 Este 0 -- -- 57
2020-06-26 18:00:00 26.5 6 Sudeste 23 Sur 0 -- -- 58
2020-06-26 17:00:00 26.2 13 Sur 32 Sur 0 -- -- 55
2020-06-26 16:00:00 30.1 8 Este 22 Este 0 -- -- 45
2020-06-26 15:00:00 31.4 10 Nordeste 17 Este 0 -- -- 44
2020-06-26 14:00:00 30.1 5 Este -- -- -- -- -- 45
2020-06-26 13:00:00 28.4 8 Nordeste 18 Nordeste -- -- -- 56
2020-06-26 12:00:00 26.5 5 Este 12 Sudeste 0 -- -- 62
2020-06-26 11:00:00 24 4 Nordeste 9 Nordeste 0 -- -- 66
2020-06-26 10:00:00 22.4 2 Este 7 Nordeste 0 -- -- 77
2020-06-26 09:00:00 20 0 Calma 6 Sudoeste 0 -- -- 86
2020-06-26 08:00:00 17.9 4 Sudoeste 9 Oeste 0 -- -- 95
2020-06-26 07:00:00 16.2 3 Oeste 6 Oeste 0 -- -- 96
2020-06-26 06:00:00 16.5 3 Sudoeste 7 Oeste 0 -- -- 94
2020-06-26 05:00:00 17.3 4 Noroeste 8 Norte 0 -- -- 93
2020-06-26 04:00:00 17.8 0 Calma 7 Sudoeste 0 -- -- 93
2020-06-26 03:00:00 18.8 4 Sudoeste 13 Noroeste 0 -- -- 91
2020-06-26 02:00:00 19.1 4 Oeste 10 Noroeste 0 -- -- 91
2020-06-26 01:00:00 19.6 3 Norte 14 Sur 3.6 -- -- 91
2020-06-26 00:00:00 20.9 8 Sur 13 Sur 0.2 -- -- 85
2020-06-25 23:00:00 21.8 4 Sur 28 Nordeste 0 -- -- 78
2020-06-25 22:00:00 22.8 14 Nordeste 31 Nordeste 0 -- -- 72
2020-06-25 21:00:00 23.8 8 Este 17 Este 0 -- -- 65
2020-06-25 20:00:00 25.5 9 Este -- -- -- -- -- 63
2020-06-25 19:00:00 26.4 8 Sudeste -- -- -- -- -- 59
2020-06-25 18:00:00 26 7 Sur 22 Sur 0.2 -- -- 78
2020-06-25 17:00:00 24.1 10 Sur 18 Nordeste 3 -- -- 79
2020-06-25 16:00:00 29.9 10 Nordeste 23 Nordeste 0 -- -- 45
2020-06-25 15:00:00 33 13 Norte 23 Norte 0 -- -- 39
2020-06-25 14:00:00 31.4 6 Nordeste 17 Nordeste 0 -- -- 45
2020-06-25 13:00:00 29.8 7 Norte 26 Este -- -- -- 48
2020-06-25 12:00:00 28.5 5 Sudeste -- -- -- -- -- 51
2020-06-25 11:00:00 26.4 6 Nordeste 15 Este -- -- -- 55
2020-06-25 10:00:00 24.2 5 Norte 11 Noroeste 0 -- -- 61
2020-06-25 09:00:00 21.5 4 Sur 8 Sur 0 -- -- 70
2020-06-25 08:00:00 17.7 3 Sudoeste 8 Sudoeste 0 -- -- 86
2020-06-25 07:00:00 15.3 0 Calma 9 Sudoeste 0 -- -- 90
2020-06-25 06:00:00 16.1 5 Sudoeste 6 Sudoeste 0 -- -- 88
2020-06-25 05:00:00 16.7 3 Oeste 10 Noroeste 0 -- -- 87
2020-06-25 04:00:00 17.3 6 Norte 13 Noroeste 0 -- -- 86
2020-06-25 03:00:00 18 2 Este 9 Sudoeste 0 -- -- 81
2020-06-25 02:00:00 18.4 3 Sudoeste 8 Noroeste 0 -- -- 81
2020-06-25 01:00:00 19.8 3 Norte 10 Noroeste 0 -- -- 75
2020-06-25 00:00:00 21 3 Norte 9 Nordeste 0 -- -- 67
2020-06-24 23:00:00 22.7 4 Este 15 Este 0 -- -- 61
2020-06-24 22:00:00 24.5 4 Este 30 Nordeste 0 -- -- 58
2020-06-24 21:00:00 26 4 Noroeste 11 Norte 0 -- -- 58
2020-06-24 20:00:00 28.7 5 Norte 13 Sudoeste 0 -- -- 41
2020-06-24 19:00:00 29.2 9 Sur 27 Sudeste 0 -- -- 41
2020-06-24 18:00:00 28.4 8 Sudeste 17 Sudeste 0 -- -- 52
2020-06-24 17:00:00 29.6 4 Sur 31 Oeste 0 -- -- 52
2020-06-24 16:00:00 30.4 13 Oeste 29 Sudoeste 0 -- -- 42
2020-06-24 15:00:00 31.3 5 Norte 14 Nordeste 0 -- -- 46
2020-06-24 14:00:00 29.6 4 Sudeste 13 Este -- -- -- 59
2020-06-24 13:00:00 29 7 Nordeste 16 Nordeste 0 -- -- 59
2020-06-24 12:00:00 27 5 Norte 14 Nordeste 0 -- -- 63
2020-06-24 11:00:00 25.6 4 Este 9 Nordeste 0 -- -- 70
2020-06-24 10:00:00 23.8 3 Nordeste 18 Nordeste 0 -- -- 74
2020-06-24 09:00:00 21.4 6 Nordeste 12 Nordeste 0 -- -- 83
2020-06-24 08:00:00 19.1 9 Norte 22 Noroeste 0 -- -- 91
2020-06-24 07:00:00 19.3 8 Sudeste 25 Noroeste 1.8 -- -- 91
2020-06-24 06:00:00 18.4 4 Oeste 8 Norte 0 -- -- 89
2020-06-24 05:00:00 18.4 3 Nordeste 9 Noroeste 0 -- -- 88
2020-06-24 04:00:00 19.4 4 Noroeste 10 Oeste 0 -- -- 84
2020-06-24 03:00:00 20.5 0 Calma 8 Sudoeste 0 -- -- 83
2020-06-24 02:00:00 23.3 4 Sur 16 Noroeste 0 -- -- 65
2020-06-24 01:00:00 22.3 2 Sudoeste 9 Oeste 0 -- -- 70
2020-06-24 00:00:00 23.2 4 Noroeste 7 Noroeste 0 -- -- 70
2020-06-23 23:00:00 24 4 Nordeste 8 Este 0 -- -- 65
2020-06-23 22:00:00 25.8 3 Noroeste 8 Nordeste 0 -- -- 65
2020-06-23 21:00:00 27.5 7 Sudoeste 13 Nordeste 0 -- -- 55
2020-06-23 20:00:00 31.8 7 Nordeste 19 Nordeste 0 -- -- 42
2020-06-23 19:00:00 34.7 9 Este 17 Este 0 -- -- 36
2020-06-23 18:00:00 34.7 9 Nordeste 20 Nordeste 0 -- -- 36
2020-06-23 17:00:00 34.1 8 Nordeste 20 Nordeste 0 -- -- 38
2020-06-23 16:00:00 33 7 Nordeste 16 Este 0 -- -- 38
2020-06-23 15:00:00 31.7 6 Nordeste 15 Este 0 -- -- 41
2020-06-23 14:00:00 29.9 5 Este 16 Este 0 -- -- 45
2020-06-23 13:00:00 28.4 6 Este 18 Este -- -- -- 46
2020-06-23 12:00:00 26.3 4 Nordeste 15 Este -- -- -- 50
2020-06-23 11:00:00 24.9 8 Nordeste 15 Nordeste -- -- -- 53
2020-06-23 10:00:00 23.2 3 Norte 10 Noroeste 0 -- -- 59
2020-06-23 09:00:00 20.2 0 Calma 6 Noroeste 0 -- -- 70
2020-06-23 08:00:00 16.1 0 Calma 5 Noroeste 0 -- -- 87
2020-06-23 07:00:00 13.7 2 Sudeste 5 Sudoeste 0 -- -- 91
2020-06-23 06:00:00 13.7 0 Calma 7 Sudoeste 0 -- -- 91
2020-06-23 05:00:00 14 5 Sudoeste 7 Sudoeste 0 -- -- 90
2020-06-23 04:00:00 14.7 0 Calma 8 Sur 0 -- -- 88
2020-06-23 03:00:00 15.6 0 Calma 5 Norte 0 -- -- 84
2020-06-23 02:00:00 16.8 4 Norte 8 Sudoeste 0 -- -- 80
2020-06-23 01:00:00 18.3 5 Sudoeste 10 Sudoeste 0 -- -- 73
2020-06-23 00:00:00 19 5 Sudoeste 10 Sudoeste 0 -- -- 71
2020-06-22 23:00:00 20.1 4 Sudoeste 8 Sudoeste 0 -- -- 69
2020-06-22 22:00:00 23 4 Sudoeste 9 Sudoeste 0 -- -- 62
2020-06-22 21:00:00 27 5 Nordeste 14 Nordeste 0 -- -- 45
2020-06-22 20:00:00 30.1 10 Norte 21 Nordeste 0 -- -- 34
2020-06-22 19:00:00 30.9 10 Nordeste 22 Norte 0 -- -- 32
2020-06-22 18:00:00 31.1 13 Nordeste 22 Norte 0 -- -- 36
2020-06-22 17:00:00 30.8 11 Nordeste 23 Nordeste 0 -- -- 37
2020-06-22 16:00:00 30.5 12 Nordeste 22 Norte 0 -- -- 37
2020-06-22 15:00:00 29.2 10 Norte 19 Norte 0 -- -- 38
2020-06-22 14:00:00 28.1 8 Nordeste 22 Nordeste 0 -- -- 43
2020-06-22 13:00:00 27.3 12 Nordeste 24 Nordeste -- -- -- 46
2020-06-22 12:00:00 26.6 6 Nordeste -- -- -- -- -- 45
2020-06-22 11:00:00 26 7 Este 29 Nordeste -- -- -- 50
2020-06-22 10:00:00 24.1 7 Sudoeste 13 Sudoeste 0 -- -- 52
2020-06-22 09:00:00 22.2 6 Sudoeste 21 Oeste 0 -- -- 58
2020-06-22 08:00:00 19.5 6 Oeste 15 Oeste 0 -- -- 66
2020-06-22 07:00:00 16.5 5 Oeste 11 Oeste 0 -- -- 76
2020-06-22 06:00:00 16.6 4 Sudoeste 8 Este 0 -- -- 74
2020-06-22 05:00:00 17.9 2 Noroeste 12 Noroeste 0 -- -- 68
2020-06-22 04:00:00 19.1 3 Sudoeste 19 Noroeste 0 -- -- 63
2020-06-22 03:00:00 20.5 8 Oeste 31 Noroeste 0 -- -- 56
2020-06-22 02:00:00 20.5 8 Oeste 21 Noroeste 0 -- -- 56
2020-06-22 01:00:00 20.7 5 Sudoeste 27 Norte 0 -- -- 55
2020-06-22 00:00:00 20.6 4 Oeste 23 Noroeste 0 -- -- 56
2020-06-21 23:00:00 22.2 4 Oeste 22 Norte 0 -- -- 49
2020-06-21 22:00:00 23.6 6 Noroeste 33 Norte 0 -- -- 44
2020-06-21 21:00:00 26 13 Norte 33 Nordeste 0 -- -- 42
2020-06-21 20:00:00 28.2 17 Norte 32 Norte 0 -- -- 39
2020-06-21 19:00:00 29.6 18 Norte 37 Norte 0 -- -- 37
2020-06-21 18:00:00 30.8 15 Norte 29 Norte 0 -- -- 36
2020-06-21 17:00:00 30.9 11 Norte 24 Nordeste 0 -- -- 34
2020-06-21 16:00:00 30.8 8 Nordeste 21 Nordeste 0 -- -- 35
2020-06-21 15:00:00 30.4 12 Nordeste 22 Nordeste 0 -- -- 35
2020-06-21 14:00:00 29 10 Nordeste 19 Norte 0 -- -- 37
2020-06-21 13:00:00 27.9 5 Norte 19 Nordeste 0 -- -- 46
2020-06-21 12:00:00 26.7 6 Nordeste 14 Nordeste -- -- -- 48
2020-06-21 11:00:00 25.1 7 Nordeste 14 Nordeste -- -- -- 47
2020-06-21 10:00:00 23.4 2 Nordeste 6 Nordeste 0 -- -- 55
2020-06-21 09:00:00 20.1 0 Calma 5 Norte 0 -- -- 69
2020-06-21 08:00:00 15.9 0 Calma 5 Sudoeste 0 -- -- 93
2020-06-21 07:00:00 14 4 Sudoeste 6 Sur 0 -- -- 92
2020-06-21 06:00:00 14.6 4 Sudoeste 5 Sudoeste 0 -- -- 90
2020-06-21 05:00:00 15.6 4 Sudoeste 9 Sudoeste 0 -- -- 88
2020-06-21 04:00:00 16.4 6 Sudoeste 9 Sudoeste 0 -- -- 87
2020-06-21 03:00:00 17 0 Calma 9 Sur 0 -- -- 86
2020-06-21 02:00:00 17.9 7 Sudoeste 10 Sudoeste 0 -- -- 83
2020-06-21 01:00:00 18.7 3 Sudoeste 9 Sudoeste 0 -- -- 81
2020-06-21 00:00:00 20.6 5 Noroeste 14 Norte 0 -- -- 70
2020-06-20 23:00:00 20.6 6 Sudoeste 8 Sudoeste 0 -- -- 78
2020-06-20 22:00:00 23.7 2 Sudoeste 8 Norte 0 -- -- 62
2020-06-20 21:00:00 26.6 4 Norte 14 Norte 0 -- -- 52
2020-06-20 20:00:00 29.3 9 Nordeste 19 Nordeste 0 -- -- 43
2020-06-20 19:00:00 30.1 11 Nordeste 22 Norte 0 -- -- 43
2020-06-20 18:00:00 30.5 9 Nordeste 17 Noroeste 0 -- -- 40
2020-06-20 17:00:00 30.3 8 Nordeste 17 Nordeste 0 -- -- 42
2020-06-20 16:00:00 29.5 7 Nordeste 15 Nordeste 0 -- -- 45
2020-06-20 15:00:00 27.8 8 Nordeste 15 Nordeste 0 -- -- 52
2020-06-20 14:00:00 26.1 5 Norte 13 Este 0 -- -- 56
2020-06-20 13:00:00 25.4 6 Sudeste 13 Este 0 -- -- 62
2020-06-20 12:00:00 23.7 2 Sudeste 12 Este 0 -- -- 62
2020-06-20 11:00:00 21.7 4 Nordeste 10 Este 0 -- -- 62
2020-06-20 10:00:00 20.6 6 Nordeste 13 Nordeste 0 -- -- 68
2020-06-20 09:00:00 18.8 6 Este 11 Este 0 -- -- 75
2020-06-20 08:00:00 16.2 4 Este 8 Este 0 -- -- 84
2020-06-20 07:00:00 15.6 5 Sudeste 13 Sudeste 0 -- -- 82
2020-06-20 06:00:00 15.9 7 Sudeste 13 Sudeste 0 -- -- 80
2020-06-20 05:00:00 16.2 6 Este 12 Este 0 -- -- 79
2020-06-20 04:00:00 17.2 8 Sudeste 12 Sudeste 0 -- -- 74
2020-06-20 03:00:00 17.8 5 Sudeste 10 Este 0 -- -- 76
2020-06-20 02:00:00 18.4 5 Sudoeste 8 Este 0 -- -- 82
2020-06-20 01:00:00 20.1 4 Nordeste 15 Norte 0 -- -- 79
2020-06-20 00:00:00 20.8 4 Sudeste 9 Sudeste 0 -- -- 75
2020-06-19 23:00:00 21 4 Sudoeste 7 Sur 0 -- -- 74
2020-06-19 22:00:00 22.9 5 Nordeste 11 Nordeste 0 -- -- 65
2020-06-19 21:00:00 25.5 8 Nordeste 16 Este 0 -- -- 57
2020-06-19 20:00:00 27.5 10 Nordeste 20 Este 0 -- -- 50
2020-06-19 19:00:00 28.2 9 Este 17 Norte 0 -- -- 50
2020-06-19 18:00:00 26.6 10 Norte 19 Norte 0 -- -- 51
2020-06-19 17:00:00 28 10 Nordeste 20 Norte 0 -- -- 47
2020-06-19 16:00:00 27.7 8 Este 19 Nordeste 0 -- -- 51
2020-06-19 15:00:00 26 9 Nordeste 18 Nordeste 0 -- -- 53
2020-06-19 14:00:00 24.9 8 Nordeste 17 Sudeste 0 -- -- 56
2020-06-19 13:00:00 23.1 6 Nordeste 13 Este 0 -- -- 52
2020-06-19 12:00:00 21.6 8 Nordeste 15 Este 0 -- -- 58
2020-06-19 11:00:00 20 6 Norte 13 Nordeste 0 -- -- 59
2020-06-19 10:00:00 18.6 0 Calma 9 Nordeste 0 -- -- 66
2020-06-19 09:00:00 16.6 4 Este 6 Nordeste 0 -- -- 79
2020-06-19 08:00:00 15 2 Nordeste 4 Nordeste 0 -- -- 86
2020-06-19 07:00:00 13.6 0 Calma 3 Norte 0 -- -- 92
2020-06-19 06:00:00 13.4 0 Calma 7 Sudoeste 0 -- -- 91
2020-06-19 05:00:00 13.1 4 Sudoeste 8 Sudeste 0 -- -- 89
2020-06-19 04:00:00 13.2 2 Sudeste 6 Sur 0 -- -- 88
2020-06-19 03:00:00 13.6 4 Sur 8 Sudoeste 0 -- -- 88
2020-06-19 02:00:00 14.5 3 Sudoeste 10 Sudoeste 0 -- -- 84
2020-06-19 01:00:00 16.8 3 Sudoeste 15 Noroeste 0 -- -- 71
2020-06-19 00:00:00 17.7 2 Noroeste 12 Oeste 0 -- -- 66
2020-06-18 23:00:00 18.9 4 Sudoeste 7 Sudoeste 0 -- -- 77
2020-06-18 22:00:00 20 3 Norte 10 Nordeste 0 -- -- 63
2020-06-18 21:00:00 22.2 4 Nordeste 14 Nordeste 0 -- -- 53
2020-06-18 20:00:00 22.7 6 Nordeste 13 Nordeste 0 -- -- 56
2020-06-18 19:00:00 23 6 Nordeste 17 Este 0 -- -- 52
2020-06-18 18:00:00 24 10 Nordeste 18 Nordeste 0 -- -- 51
2020-06-18 17:00:00 23.4 8 Nordeste 19 Norte 0 -- -- 52
2020-06-18 16:00:00 23 5 Norte 19 Nordeste 0 -- -- 53
2020-06-18 15:00:00 22 9 Nordeste 17 Nordeste 0 -- -- 63
2020-06-18 14:00:00 21.6 6 Sur 15 Nordeste 0 -- -- 59
2020-06-18 13:00:00 20 9 Norte 17 Nordeste 0 -- -- 61
2020-06-18 12:00:00 19.1 4 Este 17 Este 0 -- -- 63
2020-06-18 11:00:00 17.1 4 Nordeste 12 Norte 0 -- -- 72
2020-06-18 10:00:00 15.7 3 Este 9 Sur 0 -- -- 83
2020-06-18 09:00:00 13.9 0 Calma 5 Este 0 -- -- 93
2020-06-18 08:00:00 13 2 Norte 4 Norte 0 -- -- 95
2020-06-18 07:00:00 12 2 Sudeste 7 Norte 0 -- -- 93
2020-06-18 06:00:00 12.5 5 Norte 22 Sudeste 0.2 -- -- 93
2020-06-18 05:00:00 13.4 12 Sudeste 21 Sudeste 8 -- -- 92
2020-06-18 04:00:00 13.6 4 Noroeste 10 Sur 0 -- -- 90
2020-06-18 03:00:00 13.8 8 Sur 15 Norte 1 -- -- 90
2020-06-18 02:00:00 15.6 6 Oeste 16 Oeste 0.2 -- -- 75
2020-06-18 01:00:00 16 3 Noroeste 15 Noroeste 0 -- -- 66
2020-06-18 00:00:00 16.3 4 Noroeste 14 Noroeste 0 -- -- 68
2020-06-17 23:00:00 17 8 Noroeste 14 Norte 0 -- -- 70
2020-06-17 22:00:00 17.3 0 Calma 12 Norte 0 -- -- 61
2020-06-17 21:00:00 20.3 7 Norte 21 Nordeste 0 -- -- 52
2020-06-17 20:00:00 21.5 8 Nordeste 19 Norte 0 -- -- 50
2020-06-17 19:00:00 22.7 10 Norte 22 Nordeste 0 -- -- 45
2020-06-17 18:00:00 23 9 Nordeste 22 Nordeste 0 -- -- 46
2020-06-17 17:00:00 22.7 11 Nordeste 23 Norte 0 -- -- 48
2020-06-17 16:00:00 22 12 Nordeste 22 Nordeste 0 -- -- 49
2020-06-17 15:00:00 21.2 12 Nordeste 24 Nordeste 0 -- -- 52
2020-06-17 14:00:00 20.6 11 Nordeste 23 Este 0 -- -- 54
2020-06-17 13:00:00 19.2 12 Norte 25 Norte 0 -- -- 56
2020-06-17 12:00:00 18.3 12 Nordeste 23 Norte 0 -- -- 56
2020-06-17 11:00:00 18.5 12 Nordeste 19 Nordeste 0 -- -- 57
2020-06-17 10:00:00 16.5 7 Norte 16 Norte 0 -- -- 62
2020-06-17 09:00:00 15.1 0 Calma 7 Nordeste 0 -- -- 75
2020-06-17 08:00:00 14.1 0 Calma 6 Sudeste 0 -- -- 83
2020-06-17 07:00:00 13.6 0 Calma 4 Sudeste 0 -- -- 86
2020-06-17 06:00:00 13.8 3 Sudoeste 6 Sudoeste 0 -- -- 86
2020-06-17 05:00:00 14.1 0 Calma 10 Sudeste 0 -- -- 83
2020-06-17 04:00:00 14.1 4 Sudeste 11 Sur 0 -- -- 82
2020-06-17 03:00:00 14.1 5 Sudoeste 9 Sur 0 -- -- 86
2020-06-17 02:00:00 13.9 5 Nordeste 9 Norte 0 -- -- 85
2020-06-17 01:00:00 14.7 5 Norte 13 Norte 0 -- -- 83
2020-06-17 00:00:00 14.2 4 Sudoeste 9 Sudoeste 0 -- -- 86
2020-06-16 23:00:00 14.1 3 Sudoeste 9 Este 0 -- -- 83
2020-06-16 22:00:00 16 3 Nordeste 12 Noroeste 0 -- -- 79
2020-06-16 21:00:00 17 6 Norte 19 Norte 0 -- -- 69
2020-06-16 20:00:00 18 7 Norte 35 Norte 0 -- -- 69
2020-06-16 19:00:00 19.5 20 Norte 48 Norte 0 -- -- 61
2020-06-16 18:00:00 22.5 14 Nordeste 27 Nordeste 0 -- -- 58
2020-06-16 17:00:00 24 12 Norte 30 Sudoeste 0 -- -- 55
2020-06-16 16:00:00 25 14 Sudoeste 30 Sudoeste 0 -- -- 41
2020-06-16 15:00:00 23.5 11 Sudoeste 24 Sur 0 -- -- 52
2020-06-16 14:00:00 22.2 4 Sudoeste 12 Este 0 -- -- 62
2020-06-16 13:00:00 19.3 5 Nordeste 11 Sur 0 -- -- 76
2020-06-16 12:00:00 16.4 4 Nordeste 8 Este 0 -- -- 88
2020-06-16 11:00:00 15.3 2 Nordeste 8 Este 0.4 -- -- 91
2020-06-16 10:00:00 14.6 3 Sudeste 8 Sudeste 0.8 -- -- 93
2020-06-16 09:00:00 14.2 0 Calma 7 Nordeste 0.2 -- -- 93
2020-06-16 08:00:00 14.1 4 Sudeste 9 Sudeste 0 -- -- 93
2020-06-16 07:00:00 14.3 4 Este 10 Sur 0.8 -- -- 92
2020-06-16 06:00:00 14.5 5 Sudeste 9 Nordeste 0 -- -- 90
2020-06-16 05:00:00 15.4 5 Nordeste 9 Nordeste 0.2 -- -- 90
2020-06-16 04:00:00 16 4 Este 8 Sudoeste 0.2 -- -- 92
2020-06-16 03:00:00 16.2 6 Sudoeste 10 Oeste 0.8 -- -- 89
2020-06-16 02:00:00 17.2 4 Oeste 9 Sudoeste 0.2 -- -- 87
2020-06-16 01:00:00 17 3 Sudoeste 6 Oeste 0 -- -- 87
2020-06-16 00:00:00 17.2 2 Noroeste 9 Sudoeste 0 -- -- 86
2020-06-15 23:00:00 17.7 5 Sudoeste 13 Sudoeste 0.2 -- -- 81
2020-06-15 22:00:00 19 3 Sudoeste 14 Noroeste 0 -- -- 74
2020-06-15 21:00:00 20.3 7 Noroeste 18 Noroeste 0 -- -- 66
2020-06-15 20:00:00 22.6 6 Norte 14 Norte 0 -- -- 56
2020-06-15 19:00:00 23.3 4 Sudeste 13 Nordeste 0 -- -- 63
2020-06-15 18:00:00 25 6 Norte 17 Nordeste 0 -- -- 46
2020-06-15 17:00:00 26 9 Nordeste 22 Norte 0 -- -- 43
2020-06-15 16:00:00 25.3 13 Nordeste 21 Nordeste 0 -- -- 47
2020-06-15 15:00:00 25 8 Norte 17 Nordeste 0 -- -- 47
2020-06-15 14:00:00 24.3 10 Norte 24 Norte 0 -- -- 49
2020-06-15 13:00:00 23.8 5 Sudeste 14 Este 0 -- -- 49
2020-06-15 12:00:00 21.8 7 Norte 15 Este 0 -- -- 57
2020-06-15 11:00:00 20.3 4 Nordeste 12 Nordeste 0 -- -- 60
2020-06-15 10:00:00 19.1 6 Nordeste 10 Este 0 -- -- 64
2020-06-15 09:00:00 16.7 4 Este 7 Este 0 -- -- 71
2020-06-15 08:00:00 13.1 0 Calma 6 Sudoeste 0 -- -- 90
2020-06-15 07:00:00 12.2 4 Sudoeste 6 Sudoeste 0 -- -- 92
2020-06-15 06:00:00 12 2 Sudoeste 5 Sudoeste 0 -- -- 90
2020-06-15 05:00:00 12.1 0 Calma 4 Sudoeste 0 -- -- 89
2020-06-15 04:00:00 12.8 0 Calma 5 Sur 0 -- -- 87
2020-06-15 03:00:00 13.1 2 Sur 8 Sur 0 -- -- 85
2020-06-15 02:00:00 13.7 4 Sur 11 Noroeste 0 -- -- 81
2020-06-15 01:00:00 16.1 5 Noroeste 15 Noroeste 0 -- -- 66
2020-06-15 00:00:00 16.8 3 Norte 11 Noroeste 0 -- -- 63
2020-06-14 23:00:00 18.1 4 Noroeste 9 Noroeste 0 -- -- 58
2020-06-14 22:00:00 20.2 4 Noroeste 18 Norte 0 -- -- 55
2020-06-14 21:00:00 22.1 12 Norte 25 Norte 0 -- -- 47
2020-06-14 20:00:00 23.2 4 Noroeste 9 Nordeste 0 -- -- 54
2020-06-14 19:00:00 24.2 7 Nordeste 15 Nordeste 0 -- -- 46
2020-06-14 18:00:00 25.7 4 Noroeste 17 Noroeste 0 -- -- 39
2020-06-14 17:00:00 26.3 9 Oeste 22 Oeste 0 -- -- 35
2020-06-14 16:00:00 26.3 10 Oeste 25 Sudoeste 0 -- -- 37
2020-06-14 15:00:00 25.6 6 Sur 20 Noroeste 0 -- -- 39
2020-06-14 14:00:00 24 6 Nordeste 14 Nordeste 0 -- -- 47
2020-06-14 13:00:00 23.3 7 Nordeste 15 Nordeste 0 -- -- 48
2020-06-14 12:00:00 21.4 6 Norte 14 Norte 0 -- -- 53
2020-06-14 11:00:00 21.5 6 Nordeste 12 Norte 0 -- -- 56
2020-06-14 10:00:00 20.1 3 Sudeste 8 Sur 0 -- -- 56
2020-06-14 09:00:00 17.6 5 Sudoeste 9 Sudoeste 0 -- -- 65
2020-06-14 08:00:00 13.9 2 Nordeste 7 Noroeste 0 -- -- 89
2020-06-14 07:00:00 12.1 2 Norte 8 Oeste 0 -- -- 87
2020-06-14 06:00:00 12.7 3 Sudoeste 9 Oeste 0 -- -- 80
2020-06-14 05:00:00 12.5 0 Calma 8 Sudoeste 0 -- -- 82
2020-06-14 04:00:00 13.3 6 Sudoeste 8 Sudoeste 0 -- -- 81
2020-06-14 03:00:00 14 2 Norte 8 Nordeste 0 -- -- 79
2020-06-14 02:00:00 13.9 3 Sur 6 Sur 0 -- -- 83
2020-06-14 01:00:00 13.2 0 Calma 5 Sudoeste 0 -- -- 85
2020-06-14 00:00:00 13.6 4 Sur 6 Sur 0 -- -- 86
2020-06-13 23:00:00 14.3 4 Sudoeste 7 Sudoeste 0 -- -- 82
2020-06-13 22:00:00 17 5 Sudoeste 7 Sudoeste 0 -- -- 68
2020-06-13 21:00:00 20.4 4 Norte 22 Noroeste 0 -- -- 53
2020-06-13 20:00:00 24 9 Oeste 23 Noroeste 0 -- -- 34
2020-06-13 19:00:00 24.4 10 Noroeste 25 Noroeste 0 -- -- 35
2020-06-13 18:00:00 24.5 9 Oeste 25 Noroeste 0 -- -- 34
2020-06-13 17:00:00 23.3 11 Noroeste 26 Oeste 0 -- -- 38
2020-06-13 16:00:00 22.2 12 Noroeste 29 Oeste 0 -- -- 41
2020-06-13 15:00:00 21.6 8 Noroeste 35 Sudoeste 0 -- -- 43
2020-06-13 14:00:00 21 9 Noroeste 30 Oeste 0 -- -- 41
2020-06-13 13:00:00 20.7 14 Oeste 31 Oeste 0 -- -- 44
2020-06-13 12:00:00 20.2 12 Oeste 33 Oeste 0 -- -- 50
2020-06-13 11:00:00 17.4 15 Oeste 38 Oeste 0 -- -- 57
2020-06-13 10:00:00 18.2 13 Oeste 28 Oeste 0 -- -- 59
2020-06-13 09:00:00 15.9 13 Sudoeste 26 Sudoeste 0 -- -- 70
2020-06-13 08:00:00 14 10 Sudoeste 23 Sudoeste 0 -- -- 76
2020-06-13 07:00:00 12.9 9 Sudoeste 20 Noroeste 0 -- -- 77
2020-06-13 06:00:00 12.6 5 Sudoeste 15 Noroeste 0 -- -- 78
2020-06-13 05:00:00 12.3 5 Oeste 17 Oeste 0 -- -- 80
2020-06-13 04:00:00 11.6 6 Sudoeste 10 Sudoeste 0 -- -- 87
2020-06-13 03:00:00 11 0 Calma 9 Sudoeste 0 -- -- 90
2020-06-13 02:00:00 11.7 4 Noroeste 8 Noroeste 0 -- -- 88
2020-06-13 01:00:00 13.3 7 Oeste 14 Oeste 0 -- -- 81
2020-06-13 00:00:00 13.5 8 Sudoeste 26 Oeste 1.4 -- -- 82
2020-06-12 23:00:00 15.4 7 Oeste 22 Noroeste 1.4 -- -- 69
2020-06-12 22:00:00 18 8 Noroeste 20 Noroeste 0 -- -- 56
2020-06-12 21:00:00 19.5 12 Noroeste 23 Sudoeste 0 -- -- 49
2020-06-12 20:00:00 21.6 13 Sudoeste 32 Sudoeste 0 -- -- 42
2020-06-12 19:00:00 23.1 13 Sudoeste 40 Sur 0 -- -- 38
2020-06-12 18:00:00 23.2 16 Sudoeste 38 Sudoeste 0 -- -- 41
2020-06-12 17:00:00 22.8 18 Sudoeste 37 Sudoeste 0 -- -- 39
2020-06-12 16:00:00 21.2 14 Sudoeste 31 Sudoeste 0 -- -- 46
2020-06-12 15:00:00 21.3 18 Sudoeste 32 Sudoeste 0 -- -- 42
2020-06-12 14:00:00 19.5 9 Sudoeste 28 Sudoeste 0 -- -- 50
2020-06-12 13:00:00 18.1 9 Sudoeste 21 Sudoeste 0 -- -- 50
2020-06-12 12:00:00 18 12 Sudoeste 30 Sudoeste 0 -- -- 51
2020-06-12 11:00:00 18.3 15 Sudoeste 33 Sudoeste 0 -- -- 49
2020-06-12 10:00:00 16.4 17 Sudoeste 33 Sur 0 -- -- 57
2020-06-12 09:00:00 14.5 14 Sudoeste 25 Sudoeste 0 -- -- 68
2020-06-12 08:00:00 11.1 5 Oeste 8 Sudoeste 0 -- -- 88
2020-06-12 07:00:00 10.8 0 Calma 7 Norte 0 -- -- 93
2020-06-12 06:00:00 11.4 0 Calma 12 Sudeste 0 -- -- 92
2020-06-12 05:00:00 11.2 3 Nordeste 13 Este 0 -- -- 90
2020-06-12 04:00:00 11.4 6 Sudeste 11 Sudeste 0 -- -- 90
2020-06-12 03:00:00 11.9 6 Nordeste 15 Sudeste 0 -- -- 89
2020-06-12 02:00:00 12.8 7 Sudeste 13 Sudeste 0 -- -- 90
2020-06-12 01:00:00 13.3 0 Calma 17 Nordeste 0.6 -- -- 92
2020-06-12 00:00:00 14.7 7 Nordeste 14 Oeste 0.4 -- -- 87